地図

経路データ

SID SEASON NUMBER BASIN SUBBASIN NAME ISO_TIME NATURE LAT LON WMO_WIND WMO_PRES WMO_AGENCY TRACK_TYPE DIST2LAND LANDFALL IFLAG USA_AGENCY USA_ATCF_ID USA_LAT USA_LON USA_RECORD USA_STATUS USA_WIND USA_PRES USA_SSHS USA_R34_NE USA_R34_SE USA_R34_SW USA_R34_NW USA_R50_NE USA_R50_SE USA_R50_SW USA_R50_NW USA_R64_NE USA_R64_SE USA_R64_SW USA_R64_NW USA_POCI USA_ROCI USA_RMW USA_EYE TOKYO_LAT TOKYO_LON TOKYO_GRADE TOKYO_WIND TOKYO_PRES TOKYO_R50_DIR TOKYO_R50_LONG TOKYO_R50_SHORT TOKYO_R30_DIR TOKYO_R30_LONG TOKYO_R30_SHORT TOKYO_LAND CMA_LAT CMA_LON CMA_CAT CMA_WIND CMA_PRES HKO_LAT HKO_LON HKO_CAT HKO_WIND HKO_PRES NEWDELHI_LAT NEWDELHI_LON NEWDELHI_GRADE NEWDELHI_WIND NEWDELHI_PRES NEWDELHI_CI NEWDELHI_DP NEWDELHI_POCI REUNION_LAT REUNION_LON REUNION_TYPE REUNION_WIND REUNION_PRES REUNION_TNUM REUNION_CI REUNION_RMW REUNION_R34_NE REUNION_R34_SE REUNION_R34_SW REUNION_R34_NW REUNION_R50_NE REUNION_R50_SE REUNION_R50_SW REUNION_R50_NW REUNION_R64_NE REUNION_R64_SE REUNION_R64_SW REUNION_R64_NW BOM_LAT BOM_LON BOM_TYPE BOM_WIND BOM_PRES BOM_TNUM BOM_CI BOM_RMW BOM_R34_NE BOM_R34_SE BOM_R34_SW BOM_R34_NW BOM_R50_NE BOM_R50_SE BOM_R50_SW BOM_R50_NW BOM_R64_NE BOM_R64_SE BOM_R64_SW BOM_R64_NW BOM_ROCI BOM_POCI BOM_EYE BOM_POS_METHOD BOM_PRES_METHOD NADI_LAT NADI_LON NADI_CAT NADI_WIND NADI_PRES WELLINGTON_LAT WELLINGTON_LON WELLINGTON_WIND WELLINGTON_PRES DS824_LAT DS824_LON DS824_STAGE DS824_WIND DS824_PRES TD9636_LAT TD9636_LON TD9636_STAGE TD9636_WIND TD9636_PRES TD9635_LAT TD9635_LON TD9635_WIND TD9635_PRES TD9635_ROCI NEUMANN_LAT NEUMANN_LON NEUMANN_CLASS NEUMANN_WIND NEUMANN_PRES MLC_LAT MLC_LON MLC_CLASS MLC_WIND MLC_PRES USA_GUST BOM_GUST BOM_GUST_PER REUNION_GUST REUNION_GUST_PER USA_SEAHGT USA_SEARAD_NE USA_SEARAD_SE USA_SEARAD_SW USA_SEARAD_NW STORM_SPEED STORM_DIR
1966081S16107 1966 22 SI WA SANDRA 1966-03-21 23:00:00 NR -15.7000 107.000 main 897 897 __________O___ -1 -15.7000 107.000 1 1 0
1966081S16107 1966 22 SI WA SANDRA 1966-03-22 00:00:00 TS -15.6831 107.001 main 897 897 O________OP___ jtwc_sh SH341966 -15.7000 107.000 -1 -15.7000 107.000 TC -15.6661 107.003 1 0 0
1966081S16107 1966 22 SI WA SANDRA 1966-03-22 01:00:00 TS -15.6954 107.001 1003 bom main 897 886 P_____O__PP___ SH341966 -15.6667 106.999 -1 -16.0000 107.000 1003 -15.6667 106.999 TC -15.6323 107.005 1 1 0
1966081S16107 1966 22 SI WA SANDRA 1966-03-22 03:00:00 TS -15.6368 107.007 main 886 886 P_____P__PP___ SH341966 -15.6000 106.997 -1 -15.8911 107.032 -15.6000 106.997 TC -15.5647 107.010 1 2 0
1966081S16107 1966 22 SI WA SANDRA 1966-03-22 06:00:00 TS -15.5524 107.024 main 886 875 O_____P__OP_O_ jtwc_sh SH341966 -15.5000 107.000 -1 -15.7271 107.076 -15.5000 107.000 TC -15.4641 107.013 1 -15.8000 107.100 TC 25 1002 2 14
1966081S16107 1966 22 SI WA SANDRA 1966-03-22 09:00:00 TS -15.4489 107.041 main 864 864 P_____P__PP_P_ SH341966 -15.4000 107.008 -1 -15.5612 107.113 -15.4000 107.008 TC -15.3650 107.009 1 -15.5875 107.100 TC 25 1002 2 0
1966081S16107 1966 22 SI WA SANDRA 1966-03-22 11:00:00 TS -15.3704 107.046 main 864 853 P_____P__PO_P_ SH341966 -15.3333 107.006 -1 -15.4491 107.131 -15.3333 107.006 TC -15.3000 107.000 1 -15.4582 107.100 TC 25 1002 2 10
1966081S16107 1966 22 SI WA SANDRA 1966-03-22 12:00:00 TS -15.3321 107.046 main 853 842 O_____P__OP_O_ jtwc_sh SH341966 -15.3000 107.000 -1 -15.3924 107.138 -15.3000 107.000 TC -15.2679 106.994 1 -15.4000 107.100 TC 25 1002 2 353
1966081S16107 1966 22 SI WA SANDRA 1966-03-22 15:00:00 TS -15.2083 107.023 main 842 831 P_____P__PP_P_ SH341966 -15.2000 106.950 -1 -15.2196 107.146 -15.2000 106.950 TC -15.1721 106.969 1 -15.2500 107.100 TC 25 1001 3 346
1966081S16107 1966 22 SI WA SANDRA 1966-03-22 18:00:00 TS -15.0832 106.995 main 831 820 O_____P__OP_O_ jtwc_sh SH341966 -15.1000 106.900 -1 -15.0416 107.134 -15.1000 106.900 TC -15.0746 106.940 1 -15.1000 107.100 TC 25 1001 3 354
1966081S16107 1966 22 SI WA SANDRA 1966-03-22 21:00:00 TS -14.9504 106.981 main 820 809 P_____P__PP_P_ SH341966 -15.0075 106.893 -1 -14.8573 107.097 -15.0075 106.893 TC -14.9724 106.914 1 -14.9075 107.108 TC 25 1001 3 0
1966081S16107 1966 22 SI WA SANDRA 1966-03-22 23:00:00 TS -14.8556 106.971 main 809 798 P_____P__PO_P_ SH341966 -14.9390 106.897 -1 -14.7305 107.055 -14.9390 106.897 TC -14.9000 106.900 2 -14.7693 107.106 TC 25 1001 3 0
1966081S16107 1966 22 SI WA SANDRA 1966-03-23 00:00:00 TS -14.8005 106.967 main 798 798 O_____P__OP_O_ jtwc_sh SH341966 -14.9000 106.900 -1 -14.6657 107.030 -14.9000 106.900 TC -14.8617 106.898 2 -14.7000 107.100 TC 25 1001 3 0
1966081S16107 1966 22 SI WA SANDRA 1966-03-23 01:00:00 TS -14.7411 106.958 1001 bom main 787 778 P_____O__PP_P_ SH341966 -14.8531 106.900 -1 -14.6000 107.000 1001 4 -14.8531 106.900 TC -14.8224 106.897 2 -14.6307 107.089 TC 25 1001 4 350
1966081S16107 1966 22 SI WA SANDRA 1966-03-23 03:00:00 TS -14.6217 106.932 main 778 767 P_____P__PP_P_ SH341966 -14.7500 106.900 -1 -14.4662 106.931 1001 -14.7500 106.900 TC -14.7412 106.898 2 -14.4925 107.057 TC 25 1001 4 348
1966081S16107 1966 22 SI WA SANDRA 1966-03-23 06:00:00 TS -14.4467 106.888 main 756 756 O_____P__OP_O_ jtwc_sh SH341966 -14.6000 106.900 -1 -14.2653 106.828 1001 -14.6000 106.900 TC -14.6149 106.901 2 -14.3000 107.000 TC 25 1001 3 345
1966081S16107 1966 22 SI WA SANDRA 1966-03-23 07:00:00 TS -14.3984 106.882 1001 bom main 756 745 P_____O__PP_P_ SH341966 -14.5636 106.900 -1 -14.2000 106.800 1001 -14.5636 106.900 TC -14.5721 106.903 2 -14.2469 106.978 TC 25 1001 3 0
1966081S16107 1966 22 SI WA SANDRA 1966-03-23 09:00:00 TS -14.3072 106.872 main 745 734 P_____P__PP_P_ SH341966 -14.5000 106.900 -1 -14.0736 106.761 -14.5000 106.900 TC -14.4860 106.903 2 -14.1500 106.935 TC 25 1001 3 0
1966081S16107 1966 22 SI WA SANDRA 1966-03-23 11:00:00 TS -14.2168 106.868 main 734 734 P_____P__PO_P_ SH341966 -14.4364 106.900 -1 -13.9527 106.744 -14.4364 106.900 TC -14.4000 106.900 1 -14.0531 106.905 TC 25 1001 3 0
1966081S16107 1966 22 SI WA SANDRA 1966-03-23 12:00:00 TS -14.1487 106.865 main 723 712 O_____P__OP_O_ jtwc_sh SH341966 -14.4000 106.900 -1 -13.8940 106.743 -14.4000 106.900 TC -14.3574 106.897 1 -14.0000 106.900 TC 25 1001 4 1
1966081S16107 1966 22 SI WA SANDRA 1966-03-23 15:00:00 TS -13.9635 106.876 main 712 690 P_____P__PP_P_ SH341966 -14.2625 106.900 -1 -13.7242 106.764 -14.2625 106.900 TC -14.2309 106.879 1 -13.8000 106.935 TC 25 1001 4 5
1966081S16107 1966 22 SI WA SANDRA 1966-03-23 18:00:00 TS -13.7470 106.903 main 679 657 O_____P__OP_O_ jtwc_sh SH341966 -14.1000 106.900 -1 -13.5620 106.815 -14.1000 106.900 TC -14.1060 106.853 1 -13.6000 107.000 TC 25 1002 4 7
1966081S16107 1966 22 SI WA SANDRA 1966-03-23 21:00:00 TS -13.5248 106.938 main 657 644 ______P___P_P_ SH341966 -1 -13.4050 106.887 TC -13.9823 106.822 1 -13.4375 107.055 TC 25 1002 4 12
1966081S16107 1966 22 SI WA SANDRA 1966-03-23 23:00:00 TS -13.4009 106.972 main 644 633 ______P___O_P_ SH341966 -1 -13.3022 106.942 TC -13.9000 106.800 1 -13.3446 107.085 TC 25 1002 5 16
1966081S16107 1966 22 SI WA SANDRA 1966-03-24 00:00:00 TS -13.2755 107.010 main 633 622 ______P_____O_ -1 -13.2510 106.971 1 -13.3000 107.100 TC 25 1002 6 5
1966081S16107 1966 22 SI WA SANDRA 1966-03-24 01:00:00 NR -13.2000 107.000 1003 bom main 622 ______O_______ -1 -13.2000 107.000 1003 1 TC 5 343

IBTrACS Databaseについて

本データベースは、米国NOAAが公開する1842年以降の世界の熱帯低気圧のベストトラックデータアーカイブInternational Best Track Archive for Climate Stewardship (IBTrACS)を、ウェブで閲覧しやすい形式に変換したものです。

最終更新日:2021-12-01